< < Back
Terminal Aerodrome Forecast


Current Version              Previous Versions:   1  2  3  4  5  6  7  8  9  

Terminal Aerodrome Forecast

907
FTUS44 KMOB 262300 RRA
TAFPNS
TAF
KPNS 262342Z 2700/2724 16008KT P6SM SCT250
     FM270300 04004KT P6SM SCT250=

Latest METAR

259
SAUS70 KWBC 271500 RRC
MTRPNS
METAR KPNS 271453Z 09007KT 10SM CLR 28/22 A3005 RMK AO2 SLP175 T02830222
51012


USA.gov is the U.S. government's official web portal to all federal, state and local government web resources and services.